<?xml version="1.0" encoding="UTF-8" standalone="no" ?>
<gpx xmlns="http://www.topografix.com/GPX/1/1" xmlns:xsi="http://www.w3.org/2001/XMLSchema-instance" xsi:schemaLocation="http://www.topografix.com/GPX/1/1 http://www.topografix.com/GPX/1/1/gpx.xsd" version="1.1" creator="VisuGPX - https://www.visugpx.com">
  <metadata>
    <name>Rando LN</name>
  </metadata>
  <trk>
    <name><![CDATA[Limeuil]]></name>
    <trkseg>
      <trkpt lat="44.86471" lon="0.79579">
        <ele>63.523</ele>
        <time>2017-03-29T15:21:52Z</time>
      </trkpt>
      <trkpt lat="44.86471" lon="0.79579">
        <ele>63.523</ele>
        <time>2017-03-29T15:21:52Z</time>
      </trkpt>
      <trkpt lat="44.86471" lon="0.79579">
        <ele>63.523</ele>
        <time>2017-03-29T15:21:52Z</time>
      </trkpt>
      <trkpt lat="44.86471" lon="0.79579">
        <ele>63.523</ele>
        <time>2017-03-29T15:21:52Z</time>
      </trkpt>
      <trkpt lat="44.86471" lon="0.79579">
        <ele>63.523</ele>
        <time>2017-03-29T15:21:52Z</time>
      </trkpt>
      <trkpt lat="44.86471" lon="0.79579">
        <ele>63.523</ele>
        <time>2017-03-29T15:21:52Z</time>
      </trkpt>
      <trkpt lat="44.86471" lon="0.79579">
        <ele>63.523</ele>
        <time>2017-03-29T15:21:52Z</time>
      </trkpt>
      <trkpt lat="44.86481" lon="0.79532">
        <ele>67.008</ele>
        <time>2017-03-29T15:22:12Z</time>
      </trkpt>
      <trkpt lat="44.86498" lon="0.79501">
        <ele>72.175</ele>
        <time>2017-03-29T15:22:32Z</time>
      </trkpt>
      <trkpt lat="44.86568" lon="0.79415">
        <ele>79.67</ele>
        <time>2017-03-29T15:22:52Z</time>
      </trkpt>
      <trkpt lat="44.8662" lon="0.79374">
        <ele>82.37</ele>
        <time>2017-03-29T15:23:12Z</time>
      </trkpt>
      <trkpt lat="44.86678" lon="0.79371">
        <ele>90.152</ele>
        <time>2017-03-29T15:23:32Z</time>
      </trkpt>
      <trkpt lat="44.86687" lon="0.79378">
        <ele>92.014</ele>
        <time>2017-03-29T15:23:52Z</time>
      </trkpt>
      <trkpt lat="44.86664" lon="0.7939">
        <ele>95.075</ele>
        <time>2017-03-29T15:24:12Z</time>
      </trkpt>
      <trkpt lat="44.86642" lon="0.79409">
        <ele>98.171</ele>
        <time>2017-03-29T15:24:32Z</time>
      </trkpt>
      <trkpt lat="44.86623" lon="0.79412">
        <ele>95.193</ele>
        <time>2017-03-29T15:24:52Z</time>
      </trkpt>
      <trkpt lat="44.86605" lon="0.79429">
        <ele>94.324</ele>
        <time>2017-03-29T15:25:12Z</time>
      </trkpt>
      <trkpt lat="44.86548" lon="0.79536">
        <ele>95.604</ele>
        <time>2017-03-29T15:25:32Z</time>
      </trkpt>
      <trkpt lat="44.86578" lon="0.79542">
        <ele>105.014</ele>
        <time>2017-03-29T15:25:52Z</time>
      </trkpt>
      <trkpt lat="44.86696" lon="0.79543">
        <ele>116.708</ele>
        <time>2017-03-29T15:26:12Z</time>
      </trkpt>
      <trkpt lat="44.86697" lon="0.79568">
        <ele>118.138</ele>
        <time>2017-03-29T15:26:32Z</time>
      </trkpt>
      <trkpt lat="44.8673" lon="0.79617">
        <ele>119.423</ele>
        <time>2017-03-29T15:26:52Z</time>
      </trkpt>
      <trkpt lat="44.86747" lon="0.79632">
        <ele>120.263</ele>
        <time>2017-03-29T15:27:12Z</time>
      </trkpt>
      <trkpt lat="44.86754" lon="0.79682">
        <ele>113.835</ele>
        <time>2017-03-29T15:27:32Z</time>
      </trkpt>
      <trkpt lat="44.86774" lon="0.79667">
        <ele>120.547</ele>
        <time>2017-03-29T15:27:52Z</time>
      </trkpt>
      <trkpt lat="44.86829" lon="0.79666">
        <ele>125.698</ele>
        <time>2017-03-29T15:28:12Z</time>
      </trkpt>
      <trkpt lat="44.86857" lon="0.79657">
        <ele>127.474</ele>
        <time>2017-03-29T15:28:32Z</time>
      </trkpt>
      <trkpt lat="44.8689" lon="0.79653">
        <ele>126.486</ele>
        <time>2017-03-29T15:28:52Z</time>
      </trkpt>
      <trkpt lat="44.87091" lon="0.79584">
        <ele>128.486</ele>
        <time>2017-03-29T15:29:12Z</time>
      </trkpt>
      <trkpt lat="44.87288" lon="0.79592">
        <ele>124.06</ele>
        <time>2017-03-29T15:29:32Z</time>
      </trkpt>
      <trkpt lat="44.87343" lon="0.79579">
        <ele>125.626</ele>
        <time>2017-03-29T15:29:52Z</time>
      </trkpt>
      <trkpt lat="44.87562" lon="0.79551">
        <ele>144.908</ele>
        <time>2017-03-29T15:30:12Z</time>
      </trkpt>
      <trkpt lat="44.87598" lon="0.79555">
        <ele>147.674</ele>
        <time>2017-03-29T15:30:32Z</time>
      </trkpt>
      <trkpt lat="44.87621" lon="0.79569">
        <ele>146.899</ele>
        <time>2017-03-29T15:30:52Z</time>
      </trkpt>
      <trkpt lat="44.87671" lon="0.79576">
        <ele>145.829</ele>
        <time>2017-03-29T15:31:12Z</time>
      </trkpt>
      <trkpt lat="44.87698" lon="0.79572">
        <ele>144.981</ele>
        <time>2017-03-29T15:31:32Z</time>
      </trkpt>
      <trkpt lat="44.87786" lon="0.79604">
        <ele>148.393</ele>
        <time>2017-03-29T15:31:52Z</time>
      </trkpt>
      <trkpt lat="44.87887" lon="0.79618">
        <ele>153.934</ele>
        <time>2017-03-29T15:32:12Z</time>
      </trkpt>
      <trkpt lat="44.87912" lon="0.7963">
        <ele>154.63</ele>
        <time>2017-03-29T15:32:32Z</time>
      </trkpt>
      <trkpt lat="44.87941" lon="0.79682">
        <ele>146.362</ele>
        <time>2017-03-29T15:32:52Z</time>
      </trkpt>
      <trkpt lat="44.88033" lon="0.79726">
        <ele>144.354</ele>
        <time>2017-03-29T15:33:12Z</time>
      </trkpt>
      <trkpt lat="44.88121" lon="0.79785">
        <ele>149.556</ele>
        <time>2017-03-29T15:33:32Z</time>
      </trkpt>
      <trkpt lat="44.88189" lon="0.79823">
        <ele>151.211</ele>
        <time>2017-03-29T15:33:52Z</time>
      </trkpt>
      <trkpt lat="44.88249" lon="0.79816">
        <ele>152.908</ele>
        <time>2017-03-29T15:34:12Z</time>
      </trkpt>
      <trkpt lat="44.88268" lon="0.79807">
        <ele>155.551</ele>
        <time>2017-03-29T15:34:32Z</time>
      </trkpt>
      <trkpt lat="44.88292" lon="0.79809">
        <ele>158.386</ele>
        <time>2017-03-29T15:34:52Z</time>
      </trkpt>
      <trkpt lat="44.88311" lon="0.79829">
        <ele>158.056</ele>
        <time>2017-03-29T15:35:12Z</time>
      </trkpt>
      <trkpt lat="44.88359" lon="0.79817">
        <ele>159.868</ele>
        <time>2017-03-29T15:35:32Z</time>
      </trkpt>
      <trkpt lat="44.88373" lon="0.79786">
        <ele>160.39</ele>
        <time>2017-03-29T15:35:52Z</time>
      </trkpt>
      <trkpt lat="44.88454" lon="0.7972">
        <ele>150.091</ele>
        <time>2017-03-29T15:36:12Z</time>
      </trkpt>
      <trkpt lat="44.88466" lon="0.79697">
        <ele>149.437</ele>
        <time>2017-03-29T15:36:32Z</time>
      </trkpt>
      <trkpt lat="44.88505" lon="0.79672">
        <ele>147.279</ele>
        <time>2017-03-29T15:36:52Z</time>
      </trkpt>
      <trkpt lat="44.88517" lon="0.79671">
        <ele>146.089</ele>
        <time>2017-03-29T15:37:12Z</time>
      </trkpt>
      <trkpt lat="44.88529" lon="0.79685">
        <ele>144.306</ele>
        <time>2017-03-29T15:37:32Z</time>
      </trkpt>
      <trkpt lat="44.88542" lon="0.79684">
        <ele>143.526</ele>
        <time>2017-03-29T15:37:52Z</time>
      </trkpt>
      <trkpt lat="44.88548" lon="0.79672">
        <ele>143.908</ele>
        <time>2017-03-29T15:38:12Z</time>
      </trkpt>
      <trkpt lat="44.88631" lon="0.79625">
        <ele>142.634</ele>
        <time>2017-03-29T15:38:32Z</time>
      </trkpt>
      <trkpt lat="44.88627" lon="0.79593">
        <ele>141.839</ele>
        <time>2017-03-29T15:38:52Z</time>
      </trkpt>
      <trkpt lat="44.8864" lon="0.79584">
        <ele>139.959</ele>
        <time>2017-03-29T15:39:12Z</time>
      </trkpt>
      <trkpt lat="44.88657" lon="0.7959">
        <ele>138.491</ele>
        <time>2017-03-29T15:39:32Z</time>
      </trkpt>
      <trkpt lat="44.88697" lon="0.7963">
        <ele>133.333</ele>
        <time>2017-03-29T15:39:52Z</time>
      </trkpt>
      <trkpt lat="44.8872" lon="0.79661">
        <ele>129.884</ele>
        <time>2017-03-29T15:40:12Z</time>
      </trkpt>
      <trkpt lat="44.8875" lon="0.79648">
        <ele>129.74</ele>
        <time>2017-03-29T15:40:32Z</time>
      </trkpt>
      <trkpt lat="44.8881" lon="0.79667">
        <ele>127.472</ele>
        <time>2017-03-29T15:40:52Z</time>
      </trkpt>
      <trkpt lat="44.88837" lon="0.79701">
        <ele>128.554</ele>
        <time>2017-03-29T15:41:12Z</time>
      </trkpt>
      <trkpt lat="44.8888" lon="0.79733">
        <ele>134.556</ele>
        <time>2017-03-29T15:41:32Z</time>
      </trkpt>
      <trkpt lat="44.88895" lon="0.79726">
        <ele>136.511</ele>
        <time>2017-03-29T15:41:52Z</time>
      </trkpt>
      <trkpt lat="44.88911" lon="0.79696">
        <ele>139.908</ele>
        <time>2017-03-29T15:42:12Z</time>
      </trkpt>
      <trkpt lat="44.88945" lon="0.79684">
        <ele>142.431</ele>
        <time>2017-03-29T15:42:32Z</time>
      </trkpt>
      <trkpt lat="44.88959" lon="0.79667">
        <ele>143.596</ele>
        <time>2017-03-29T15:42:52Z</time>
      </trkpt>
      <trkpt lat="44.88983" lon="0.79656">
        <ele>144.216</ele>
        <time>2017-03-29T15:43:12Z</time>
      </trkpt>
      <trkpt lat="44.89019" lon="0.79619">
        <ele>144.388</ele>
        <time>2017-03-29T15:43:32Z</time>
      </trkpt>
      <trkpt lat="44.89073" lon="0.79521">
        <ele>140.27</ele>
        <time>2017-03-29T15:43:52Z</time>
      </trkpt>
      <trkpt lat="44.89096" lon="0.79488">
        <ele>135.771</ele>
        <time>2017-03-29T15:44:12Z</time>
      </trkpt>
      <trkpt lat="44.89122" lon="0.79465">
        <ele>132.097</ele>
        <time>2017-03-29T15:44:32Z</time>
      </trkpt>
      <trkpt lat="44.89156" lon="0.79453">
        <ele>131.339</ele>
        <time>2017-03-29T15:44:52Z</time>
      </trkpt>
      <trkpt lat="44.89216" lon="0.79467">
        <ele>131.828</ele>
        <time>2017-03-29T15:45:12Z</time>
      </trkpt>
      <trkpt lat="44.89288" lon="0.79406">
        <ele>131.089</ele>
        <time>2017-03-29T15:45:32Z</time>
      </trkpt>
      <trkpt lat="44.89352" lon="0.79406">
        <ele>125.017</ele>
        <time>2017-03-29T15:45:52Z</time>
      </trkpt>
      <trkpt lat="44.89369" lon="0.79379">
        <ele>127.208</ele>
        <time>2017-03-29T15:46:12Z</time>
      </trkpt>
      <trkpt lat="44.89389" lon="0.79369">
        <ele>126.478</ele>
        <time>2017-03-29T15:46:32Z</time>
      </trkpt>
      <trkpt lat="44.89404" lon="0.79389">
        <ele>125.063</ele>
        <time>2017-03-29T15:46:52Z</time>
      </trkpt>
      <trkpt lat="44.89462" lon="0.79383">
        <ele>122.013</ele>
        <time>2017-03-29T15:47:12Z</time>
      </trkpt>
      <trkpt lat="44.89491" lon="0.79371">
        <ele>123.525</ele>
        <time>2017-03-29T15:47:32Z</time>
      </trkpt>
      <trkpt lat="44.89514" lon="0.79374">
        <ele>122.627</ele>
        <time>2017-03-29T15:47:52Z</time>
      </trkpt>
      <trkpt lat="44.89542" lon="0.79394">
        <ele>120.238</ele>
        <time>2017-03-29T15:48:12Z</time>
      </trkpt>
      <trkpt lat="44.89552" lon="0.79432">
        <ele>119.644</ele>
        <time>2017-03-29T15:48:32Z</time>
      </trkpt>
      <trkpt lat="44.8957" lon="0.79426">
        <ele>121.976</ele>
        <time>2017-03-29T15:48:52Z</time>
      </trkpt>
      <trkpt lat="44.8959" lon="0.79405">
        <ele>123.069</ele>
        <time>2017-03-29T15:49:12Z</time>
      </trkpt>
      <trkpt lat="44.89621" lon="0.79427">
        <ele>126.304</ele>
        <time>2017-03-29T15:49:32Z</time>
      </trkpt>
      <trkpt lat="44.89636" lon="0.7945">
        <ele>128.424</ele>
        <time>2017-03-29T15:49:52Z</time>
      </trkpt>
      <trkpt lat="44.89665" lon="0.7947">
        <ele>131.808</ele>
        <time>2017-03-29T15:50:12Z</time>
      </trkpt>
      <trkpt lat="44.89767" lon="0.79577">
        <ele>151.222</ele>
        <time>2017-03-29T15:50:32Z</time>
      </trkpt>
      <trkpt lat="44.89825" lon="0.79668">
        <ele>165.047</ele>
        <time>2017-03-29T15:50:52Z</time>
      </trkpt>
      <trkpt lat="44.89888" lon="0.79751">
        <ele>176.077</ele>
        <time>2017-03-29T15:51:12Z</time>
      </trkpt>
      <trkpt lat="44.89922" lon="0.79814">
        <ele>181.899</ele>
        <time>2017-03-29T15:51:32Z</time>
      </trkpt>
      <trkpt lat="44.89987" lon="0.79868">
        <ele>186.721</ele>
        <time>2017-03-29T15:51:52Z</time>
      </trkpt>
      <trkpt lat="44.89935" lon="0.79969">
        <ele>187.212</ele>
        <time>2017-03-29T15:52:12Z</time>
      </trkpt>
      <trkpt lat="44.89812" lon="0.80167">
        <ele>178.068</ele>
        <time>2017-03-29T15:52:32Z</time>
      </trkpt>
      <trkpt lat="44.89794" lon="0.80216">
        <ele>179.29</ele>
        <time>2017-03-29T15:52:52Z</time>
      </trkpt>
      <trkpt lat="44.89787" lon="0.80281">
        <ele>179.172</ele>
        <time>2017-03-29T15:53:12Z</time>
      </trkpt>
      <trkpt lat="44.89787" lon="0.80359">
        <ele>172.513</ele>
        <time>2017-03-29T15:53:32Z</time>
      </trkpt>
      <trkpt lat="44.89769" lon="0.80503">
        <ele>173.814</ele>
        <time>2017-03-29T15:53:52Z</time>
      </trkpt>
      <trkpt lat="44.89763" lon="0.80528">
        <ele>174.508</ele>
        <time>2017-03-29T15:54:12Z</time>
      </trkpt>
      <trkpt lat="44.89702" lon="0.80615">
        <ele>176.383</ele>
        <time>2017-03-29T15:54:32Z</time>
      </trkpt>
      <trkpt lat="44.8975" lon="0.80745">
        <ele>178.278</ele>
        <time>2017-03-29T15:54:52Z</time>
      </trkpt>
      <trkpt lat="44.89805" lon="0.8087">
        <ele>170.318</ele>
        <time>2017-03-29T15:55:12Z</time>
      </trkpt>
      <trkpt lat="44.89785" lon="0.80891">
        <ele>167.38</ele>
        <time>2017-03-29T15:55:32Z</time>
      </trkpt>
      <trkpt lat="44.89779" lon="0.80941">
        <ele>160.542</ele>
        <time>2017-03-29T15:55:52Z</time>
      </trkpt>
      <trkpt lat="44.89773" lon="0.8096">
        <ele>158.453</ele>
        <time>2017-03-29T15:56:12Z</time>
      </trkpt>
      <trkpt lat="44.89731" lon="0.81022">
        <ele>150.959</ele>
        <time>2017-03-29T15:56:32Z</time>
      </trkpt>
      <trkpt lat="44.89706" lon="0.81045">
        <ele>148.121</ele>
        <time>2017-03-29T15:56:52Z</time>
      </trkpt>
      <trkpt lat="44.89712" lon="0.81104">
        <ele>148.588</ele>
        <time>2017-03-29T15:57:12Z</time>
      </trkpt>
      <trkpt lat="44.89711" lon="0.81172">
        <ele>146.724</ele>
        <time>2017-03-29T15:57:32Z</time>
      </trkpt>
      <trkpt lat="44.89727" lon="0.81241">
        <ele>139.526</ele>
        <time>2017-03-29T15:57:52Z</time>
      </trkpt>
      <trkpt lat="44.89738" lon="0.81309">
        <ele>133.408</ele>
        <time>2017-03-29T15:58:12Z</time>
      </trkpt>
      <trkpt lat="44.89748" lon="0.81331">
        <ele>129.484</ele>
        <time>2017-03-29T15:58:32Z</time>
      </trkpt>
      <trkpt lat="44.89763" lon="0.81416">
        <ele>125.529</ele>
        <time>2017-03-29T15:58:52Z</time>
      </trkpt>
      <trkpt lat="44.89709" lon="0.81465">
        <ele>120.049</ele>
        <time>2017-03-29T15:59:12Z</time>
      </trkpt>
      <trkpt lat="44.8966" lon="0.81494">
        <ele>118.651</ele>
        <time>2017-03-29T15:59:32Z</time>
      </trkpt>
      <trkpt lat="44.89657" lon="0.81509">
        <ele>119.293</ele>
        <time>2017-03-29T15:59:52Z</time>
      </trkpt>
      <trkpt lat="44.89663" lon="0.81558">
        <ele>117.894</ele>
        <time>2017-03-29T16:00:12Z</time>
      </trkpt>
      <trkpt lat="44.8966" lon="0.81569">
        <ele>118.77</ele>
        <time>2017-03-29T16:00:32Z</time>
      </trkpt>
      <trkpt lat="44.89623" lon="0.81589">
        <ele>127.562</ele>
        <time>2017-03-29T16:00:52Z</time>
      </trkpt>
      <trkpt lat="44.89562" lon="0.8168">
        <ele>135.886</ele>
        <time>2017-03-29T16:01:12Z</time>
      </trkpt>
      <trkpt lat="44.89556" lon="0.81687">
        <ele>136.96</ele>
        <time>2017-03-29T16:01:32Z</time>
      </trkpt>
      <trkpt lat="44.89548" lon="0.81679">
        <ele>137.126</ele>
        <time>2017-03-29T16:01:52Z</time>
      </trkpt>
      <trkpt lat="44.89534" lon="0.81708">
        <ele>136.008</ele>
        <time>2017-03-29T16:02:12Z</time>
      </trkpt>
      <trkpt lat="44.89525" lon="0.8174">
        <ele>134.124</ele>
        <time>2017-03-29T16:02:32Z</time>
      </trkpt>
      <trkpt lat="44.89519" lon="0.81734">
        <ele>134.089</ele>
        <time>2017-03-29T16:02:52Z</time>
      </trkpt>
      <trkpt lat="44.89436" lon="0.81799">
        <ele>127.519</ele>
        <time>2017-03-29T16:03:12Z</time>
      </trkpt>
      <trkpt lat="44.89424" lon="0.81818">
        <ele>126.551</ele>
        <time>2017-03-29T16:03:32Z</time>
      </trkpt>
      <trkpt lat="44.89294" lon="0.81921">
        <ele>119.023</ele>
        <time>2017-03-29T16:03:52Z</time>
      </trkpt>
      <trkpt lat="44.89238" lon="0.81962">
        <ele>128.874</ele>
        <time>2017-03-29T16:04:12Z</time>
      </trkpt>
      <trkpt lat="44.89219" lon="0.81968">
        <ele>129.12</ele>
        <time>2017-03-29T16:04:32Z</time>
      </trkpt>
      <trkpt lat="44.89185" lon="0.82006">
        <ele>132.932</ele>
        <time>2017-03-29T16:04:52Z</time>
      </trkpt>
      <trkpt lat="44.89122" lon="0.82039">
        <ele>142.583</ele>
        <time>2017-03-29T16:05:12Z</time>
      </trkpt>
      <trkpt lat="44.89027" lon="0.82049">
        <ele>150.325</ele>
        <time>2017-03-29T16:05:32Z</time>
      </trkpt>
      <trkpt lat="44.88953" lon="0.82079">
        <ele>155.917</ele>
        <time>2017-03-29T16:05:52Z</time>
      </trkpt>
      <trkpt lat="44.88822" lon="0.82204">
        <ele>145.108</ele>
        <time>2017-03-29T16:06:12Z</time>
      </trkpt>
      <trkpt lat="44.88786" lon="0.82261">
        <ele>143.014</ele>
        <time>2017-03-29T16:06:32Z</time>
      </trkpt>
      <trkpt lat="44.88735" lon="0.82332">
        <ele>137.979</ele>
        <time>2017-03-29T16:06:52Z</time>
      </trkpt>
      <trkpt lat="44.88736" lon="0.82343">
        <ele>137.389</ele>
        <time>2017-03-29T16:07:12Z</time>
      </trkpt>
      <trkpt lat="44.88697" lon="0.82499">
        <ele>141.871</ele>
        <time>2017-03-29T16:07:32Z</time>
      </trkpt>
      <trkpt lat="44.88663" lon="0.82569">
        <ele>144.693</ele>
        <time>2017-03-29T16:07:52Z</time>
      </trkpt>
      <trkpt lat="44.88595" lon="0.8278">
        <ele>145.254</ele>
        <time>2017-03-29T16:08:12Z</time>
      </trkpt>
      <trkpt lat="44.88562" lon="0.82833">
        <ele>141.41</ele>
        <time>2017-03-29T16:08:32Z</time>
      </trkpt>
      <trkpt lat="44.88539" lon="0.82876">
        <ele>140.832</ele>
        <time>2017-03-29T16:08:52Z</time>
      </trkpt>
      <trkpt lat="44.88471" lon="0.82981">
        <ele>131.796</ele>
        <time>2017-03-29T16:09:12Z</time>
      </trkpt>
      <trkpt lat="44.88495" lon="0.83018">
        <ele>136.231</ele>
        <time>2017-03-29T16:09:32Z</time>
      </trkpt>
      <trkpt lat="44.88508" lon="0.83063">
        <ele>138.124</ele>
        <time>2017-03-29T16:09:52Z</time>
      </trkpt>
      <trkpt lat="44.88516" lon="0.83122">
        <ele>136.008</ele>
        <time>2017-03-29T16:10:12Z</time>
      </trkpt>
      <trkpt lat="44.88542" lon="0.83256">
        <ele>123.045</ele>
        <time>2017-03-29T16:10:32Z</time>
      </trkpt>
      <trkpt lat="44.88539" lon="0.83275">
        <ele>121.87</ele>
        <time>2017-03-29T16:10:52Z</time>
      </trkpt>
      <trkpt lat="44.88481" lon="0.83301">
        <ele>123.86</ele>
        <time>2017-03-29T16:11:12Z</time>
      </trkpt>
      <trkpt lat="44.88463" lon="0.83295">
        <ele>124.832</ele>
        <time>2017-03-29T16:11:32Z</time>
      </trkpt>
      <trkpt lat="44.88448" lon="0.83279">
        <ele>125.074</ele>
        <time>2017-03-29T16:11:52Z</time>
      </trkpt>
      <trkpt lat="44.88401" lon="0.83282">
        <ele>117.435</ele>
        <time>2017-03-29T16:12:12Z</time>
      </trkpt>
      <trkpt lat="44.88325" lon="0.83324">
        <ele>110.411</ele>
        <time>2017-03-29T16:12:32Z</time>
      </trkpt>
      <trkpt lat="44.88295" lon="0.83334">
        <ele>109.083</ele>
        <time>2017-03-29T16:12:52Z</time>
      </trkpt>
      <trkpt lat="44.88258" lon="0.83316">
        <ele>105.145</ele>
        <time>2017-03-29T16:13:12Z</time>
      </trkpt>
      <trkpt lat="44.88202" lon="0.83252">
        <ele>94.247</ele>
        <time>2017-03-29T16:13:32Z</time>
      </trkpt>
      <trkpt lat="44.88203" lon="0.83237">
        <ele>92.611</ele>
        <time>2017-03-29T16:13:52Z</time>
      </trkpt>
      <trkpt lat="44.88217" lon="0.83207">
        <ele>92.308</ele>
        <time>2017-03-29T16:14:12Z</time>
      </trkpt>
      <trkpt lat="44.88213" lon="0.83189">
        <ele>91.18</ele>
        <time>2017-03-29T16:14:32Z</time>
      </trkpt>
      <trkpt lat="44.88196" lon="0.8318">
        <ele>88.175</ele>
        <time>2017-03-29T16:14:52Z</time>
      </trkpt>
      <trkpt lat="44.88166" lon="0.83175">
        <ele>81.575</ele>
        <time>2017-03-29T16:15:12Z</time>
      </trkpt>
      <trkpt lat="44.88156" lon="0.83187">
        <ele>80.667</ele>
        <time>2017-03-29T16:15:32Z</time>
      </trkpt>
      <trkpt lat="44.88151" lon="0.83205">
        <ele>81.359</ele>
        <time>2017-03-29T16:15:52Z</time>
      </trkpt>
      <trkpt lat="44.88072" lon="0.8324">
        <ele>78.66</ele>
        <time>2017-03-29T16:16:12Z</time>
      </trkpt>
      <trkpt lat="44.87982" lon="0.83248">
        <ele>70.346</ele>
        <time>2017-03-29T16:16:32Z</time>
      </trkpt>
      <trkpt lat="44.8796" lon="0.83232">
        <ele>66.498</ele>
        <time>2017-03-29T16:16:52Z</time>
      </trkpt>
      <trkpt lat="44.87926" lon="0.83252">
        <ele>65.956</ele>
        <time>2017-03-29T16:17:12Z</time>
      </trkpt>
      <trkpt lat="44.87907" lon="0.83236">
        <ele>63.759</ele>
        <time>2017-03-29T16:17:32Z</time>
      </trkpt>
      <trkpt lat="44.87852" lon="0.83249">
        <ele>61.914</ele>
        <time>2017-03-29T16:17:52Z</time>
      </trkpt>
      <trkpt lat="44.87843" lon="0.8323">
        <ele>59.808</ele>
        <time>2017-03-29T16:18:12Z</time>
      </trkpt>
      <trkpt lat="44.87833" lon="0.83164">
        <ele>60.971</ele>
        <time>2017-03-29T16:18:32Z</time>
      </trkpt>
      <trkpt lat="44.87778" lon="0.83175">
        <ele>58.386</ele>
        <time>2017-03-29T16:18:52Z</time>
      </trkpt>
      <trkpt lat="44.87757" lon="0.83062">
        <ele>55.056</ele>
        <time>2017-03-29T16:19:12Z</time>
      </trkpt>
      <trkpt lat="44.87699" lon="0.8309">
        <ele>56.978</ele>
        <time>2017-03-29T16:19:32Z</time>
      </trkpt>
      <trkpt lat="44.87609" lon="0.83079">
        <ele>56.99</ele>
        <time>2017-03-29T16:19:52Z</time>
      </trkpt>
      <trkpt lat="44.87634" lon="0.83402">
        <ele>54.851</ele>
        <time>2017-03-29T16:20:12Z</time>
      </trkpt>
      <trkpt lat="44.87699" lon="0.83678">
        <ele>65.787</ele>
        <time>2017-03-29T16:20:32Z</time>
      </trkpt>
      <trkpt lat="44.87746" lon="0.83763">
        <ele>64.859</ele>
        <time>2017-03-29T16:20:52Z</time>
      </trkpt>
      <trkpt lat="44.8781" lon="0.83838">
        <ele>69.081</ele>
        <time>2017-03-29T16:21:12Z</time>
      </trkpt>
      <trkpt lat="44.87868" lon="0.8388">
        <ele>70.361</ele>
        <time>2017-03-29T16:21:32Z</time>
      </trkpt>
      <trkpt lat="44.87944" lon="0.83912">
        <ele>64.917</ele>
        <time>2017-03-29T16:21:52Z</time>
      </trkpt>
      <trkpt lat="44.88175" lon="0.83922">
        <ele>69.208</ele>
        <time>2017-03-29T16:22:12Z</time>
      </trkpt>
      <trkpt lat="44.8825" lon="0.84038">
        <ele>62.094</ele>
        <time>2017-03-29T16:22:32Z</time>
      </trkpt>
      <trkpt lat="44.88287" lon="0.84035">
        <ele>65.189</ele>
        <time>2017-03-29T16:22:52Z</time>
      </trkpt>
      <trkpt lat="44.88289" lon="0.84119">
        <ele>70.799</ele>
        <time>2017-03-29T16:23:12Z</time>
      </trkpt>
      <trkpt lat="44.8833" lon="0.8418">
        <ele>75.871</ele>
        <time>2017-03-29T16:23:32Z</time>
      </trkpt>
      <trkpt lat="44.8834" lon="0.84218">
        <ele>77.643</ele>
        <time>2017-03-29T16:23:52Z</time>
      </trkpt>
      <trkpt lat="44.88349" lon="0.84376">
        <ele>83.394</ele>
        <time>2017-03-29T16:24:12Z</time>
      </trkpt>
      <trkpt lat="44.88335" lon="0.84456">
        <ele>87.04</ele>
        <time>2017-03-29T16:24:32Z</time>
      </trkpt>
      <trkpt lat="44.88305" lon="0.84465">
        <ele>91.882</ele>
        <time>2017-03-29T16:24:52Z</time>
      </trkpt>
      <trkpt lat="44.88264" lon="0.84451">
        <ele>96.639</ele>
        <time>2017-03-29T16:25:12Z</time>
      </trkpt>
      <trkpt lat="44.88253" lon="0.8444">
        <ele>97.501</ele>
        <time>2017-03-29T16:25:32Z</time>
      </trkpt>
      <trkpt lat="44.88236" lon="0.84442">
        <ele>98.921</ele>
        <time>2017-03-29T16:25:52Z</time>
      </trkpt>
      <trkpt lat="44.88163" lon="0.84399">
        <ele>102.408</ele>
        <time>2017-03-29T16:26:12Z</time>
      </trkpt>
      <trkpt lat="44.88073" lon="0.84481">
        <ele>107.859</ele>
        <time>2017-03-29T16:26:32Z</time>
      </trkpt>
      <trkpt lat="44.88064" lon="0.84516">
        <ele>109.294</ele>
        <time>2017-03-29T16:26:52Z</time>
      </trkpt>
      <trkpt lat="44.8806" lon="0.84587">
        <ele>108.054</ele>
        <time>2017-03-29T16:27:12Z</time>
      </trkpt>
      <trkpt lat="44.88075" lon="0.84671">
        <ele>108.156</ele>
        <time>2017-03-29T16:27:32Z</time>
      </trkpt>
      <trkpt lat="44.88099" lon="0.84749">
        <ele>98.588</ele>
        <time>2017-03-29T16:27:52Z</time>
      </trkpt>
      <trkpt lat="44.88155" lon="0.84841">
        <ele>98.379</ele>
        <time>2017-03-29T16:28:12Z</time>
      </trkpt>
      <trkpt lat="44.8819" lon="0.84857">
        <ele>100.425</ele>
        <time>2017-03-29T16:28:32Z</time>
      </trkpt>
      <trkpt lat="44.88209" lon="0.84902">
        <ele>103.267</ele>
        <time>2017-03-29T16:28:52Z</time>
      </trkpt>
      <trkpt lat="44.88212" lon="0.85052">
        <ele>108.887</ele>
        <time>2017-03-29T16:29:12Z</time>
      </trkpt>
      <trkpt lat="44.88224" lon="0.85164">
        <ele>115.842</ele>
        <time>2017-03-29T16:29:32Z</time>
      </trkpt>
      <trkpt lat="44.88185" lon="0.8526">
        <ele>120.726</ele>
        <time>2017-03-29T16:29:52Z</time>
      </trkpt>
      <trkpt lat="44.88169" lon="0.85368">
        <ele>120.208</ele>
        <time>2017-03-29T16:30:12Z</time>
      </trkpt>
      <trkpt lat="44.88144" lon="0.85464">
        <ele>126.874</ele>
        <time>2017-03-29T16:30:32Z</time>
      </trkpt>
      <trkpt lat="44.88142" lon="0.8553">
        <ele>130.619</ele>
        <time>2017-03-29T16:30:52Z</time>
      </trkpt>
      <trkpt lat="44.88123" lon="0.85651">
        <ele>134.199</ele>
        <time>2017-03-29T16:31:12Z</time>
      </trkpt>
      <trkpt lat="44.88031" lon="0.85662">
        <ele>131.091</ele>
        <time>2017-03-29T16:31:32Z</time>
      </trkpt>
      <trkpt lat="44.88081" lon="0.85839">
        <ele>131.893</ele>
        <time>2017-03-29T16:31:52Z</time>
      </trkpt>
      <trkpt lat="44.88083" lon="0.85876">
        <ele>130.594</ele>
        <time>2017-03-29T16:32:12Z</time>
      </trkpt>
      <trkpt lat="44.88102" lon="0.85944">
        <ele>126.75</ele>
        <time>2017-03-29T16:32:32Z</time>
      </trkpt>
      <trkpt lat="44.88112" lon="0.86004">
        <ele>124.962</ele>
        <time>2017-03-29T16:32:52Z</time>
      </trkpt>
      <trkpt lat="44.88144" lon="0.86081">
        <ele>122.672</ele>
        <time>2017-03-29T16:33:12Z</time>
      </trkpt>
      <trkpt lat="44.88184" lon="0.86123">
        <ele>117.713</ele>
        <time>2017-03-29T16:33:32Z</time>
      </trkpt>
      <trkpt lat="44.88214" lon="0.86162">
        <ele>116.014</ele>
        <time>2017-03-29T16:33:52Z</time>
      </trkpt>
      <trkpt lat="44.88347" lon="0.86172">
        <ele>105.008</ele>
        <time>2017-03-29T16:34:12Z</time>
      </trkpt>
      <trkpt lat="44.88374" lon="0.86164">
        <ele>103.523</ele>
        <time>2017-03-29T16:34:32Z</time>
      </trkpt>
      <trkpt lat="44.88395" lon="0.86194">
        <ele>104.338</ele>
        <time>2017-03-29T16:34:52Z</time>
      </trkpt>
      <trkpt lat="44.8844" lon="0.86186">
        <ele>98.858</ele>
        <time>2017-03-29T16:35:12Z</time>
      </trkpt>
      <trkpt lat="44.88464" lon="0.86204">
        <ele>96.31</ele>
        <time>2017-03-29T16:35:32Z</time>
      </trkpt>
      <trkpt lat="44.88492" lon="0.86238">
        <ele>92.752</ele>
        <time>2017-03-29T16:35:52Z</time>
      </trkpt>
      <trkpt lat="44.8851" lon="0.86273">
        <ele>89.563</ele>
        <time>2017-03-29T16:36:12Z</time>
      </trkpt>
      <trkpt lat="44.88523" lon="0.86311">
        <ele>81.689</ele>
        <time>2017-03-29T16:36:32Z</time>
      </trkpt>
      <trkpt lat="44.88526" lon="0.86333">
        <ele>75.781</ele>
        <time>2017-03-29T16:36:52Z</time>
      </trkpt>
      <trkpt lat="44.88537" lon="0.86353">
        <ele>68.058</ele>
        <time>2017-03-29T16:37:12Z</time>
      </trkpt>
      <trkpt lat="44.88539" lon="0.86379">
        <ele>63.652</ele>
        <time>2017-03-29T16:37:32Z</time>
      </trkpt>
      <trkpt lat="44.88556" lon="0.86401">
        <ele>58.617</ele>
        <time>2017-03-29T16:37:52Z</time>
      </trkpt>
      <trkpt lat="44.88638" lon="0.86572">
        <ele>64.308</ele>
        <time>2017-03-29T16:38:12Z</time>
      </trkpt>
      <trkpt lat="44.88637" lon="0.86593">
        <ele>67.791</ele>
        <time>2017-03-29T16:38:32Z</time>
      </trkpt>
      <trkpt lat="44.88568" lon="0.86622">
        <ele>71.886</ele>
        <time>2017-03-29T16:38:52Z</time>
      </trkpt>
      <trkpt lat="44.88527" lon="0.86656">
        <ele>73.336</ele>
        <time>2017-03-29T16:39:12Z</time>
      </trkpt>
      <trkpt lat="44.88458" lon="0.86743">
        <ele>82.958</ele>
        <time>2017-03-29T16:39:32Z</time>
      </trkpt>
      <trkpt lat="44.88389" lon="0.86816">
        <ele>84.52</ele>
        <time>2017-03-29T16:39:52Z</time>
      </trkpt>
      <trkpt lat="44.88341" lon="0.86881">
        <ele>88.911</ele>
        <time>2017-03-29T16:40:12Z</time>
      </trkpt>
      <trkpt lat="44.88282" lon="0.86946">
        <ele>94.667</ele>
        <time>2017-03-29T16:40:32Z</time>
      </trkpt>
      <trkpt lat="44.88282" lon="0.86983">
        <ele>89.219</ele>
        <time>2017-03-29T16:40:52Z</time>
      </trkpt>
      <trkpt lat="44.88362" lon="0.87184">
        <ele>107.216</ele>
        <time>2017-03-29T16:41:12Z</time>
      </trkpt>
      <trkpt lat="44.88384" lon="0.87338">
        <ele>101.976</ele>
        <time>2017-03-29T16:41:32Z</time>
      </trkpt>
      <trkpt lat="44.88409" lon="0.87413">
        <ele>102.713</ele>
        <time>2017-03-29T16:41:52Z</time>
      </trkpt>
      <trkpt lat="44.88405" lon="0.8751">
        <ele>96.908</ele>
        <time>2017-03-29T16:42:12Z</time>
      </trkpt>
      <trkpt lat="44.88431" lon="0.87638">
        <ele>109.647</ele>
        <time>2017-03-29T16:42:32Z</time>
      </trkpt>
      <trkpt lat="44.88416" lon="0.87782">
        <ele>107.912</ele>
        <time>2017-03-29T16:42:52Z</time>
      </trkpt>
      <trkpt lat="44.88416" lon="0.87899">
        <ele>118.042</ele>
        <time>2017-03-29T16:43:12Z</time>
      </trkpt>
      <trkpt lat="44.8841" lon="0.87961">
        <ele>117.244</ele>
        <time>2017-03-29T16:43:32Z</time>
      </trkpt>
      <trkpt lat="44.88626" lon="0.87985">
        <ele>132.776</ele>
        <time>2017-03-29T16:43:52Z</time>
      </trkpt>
      <trkpt lat="44.8861" lon="0.8811">
        <ele>122.047</ele>
        <time>2017-03-29T16:44:12Z</time>
      </trkpt>
      <trkpt lat="44.88619" lon="0.88126">
        <ele>123.173</ele>
        <time>2017-03-29T16:44:32Z</time>
      </trkpt>
      <trkpt lat="44.88672" lon="0.88114">
        <ele>131.325</ele>
        <time>2017-03-29T16:44:52Z</time>
      </trkpt>
      <trkpt lat="44.88705" lon="0.88128">
        <ele>133.792</ele>
        <time>2017-03-29T16:45:12Z</time>
      </trkpt>
      <trkpt lat="44.88735" lon="0.88128">
        <ele>135.073</ele>
        <time>2017-03-29T16:45:32Z</time>
      </trkpt>
      <trkpt lat="44.88816" lon="0.88103">
        <ele>137.02</ele>
        <time>2017-03-29T16:45:52Z</time>
      </trkpt>
      <trkpt lat="44.88862" lon="0.88077">
        <ele>134.308</ele>
        <time>2017-03-29T16:46:12Z</time>
      </trkpt>
      <trkpt lat="44.88923" lon="0.88027">
        <ele>132.575</ele>
        <time>2017-03-29T16:46:32Z</time>
      </trkpt>
      <trkpt lat="44.88989" lon="0.88232">
        <ele>119.88</ele>
        <time>2017-03-29T16:46:52Z</time>
      </trkpt>
      <trkpt lat="44.8906" lon="0.88114">
        <ele>127.4</ele>
      </trkpt>
      <trkpt lat="44.89101" lon="0.88022">
        <ele>133.6</ele>
      </trkpt>
      <trkpt lat="44.89124" lon="0.87923">
        <ele>141.2</ele>
      </trkpt>
      <trkpt lat="44.89163" lon="0.87902">
        <ele>146.6</ele>
      </trkpt>
      <trkpt lat="44.89321" lon="0.87963">
        <ele>159.6</ele>
      </trkpt>
    </trkseg>
  </trk>
</gpx>